Time;durP1;ratioP1;P1;durP2;ratioP2;P2;SDS_P1;SDS_P2;PMS_P1;PMS_P2;Temp;Humidity;BMP_temperature;BMP_pressure;BME280_temperature;BME280_humidity;BME280_pressure;Samples;Min_cycle;Max_cycle;Signal;HPM_P1;HPM_P2
2021/07/27 00:01:42;;;;;;;1.70;1.60;;;20.60;1.00;;;;;;5014678;28;20510;-80
2021/07/27 00:04:10;;;;;;;1.97;1.77;;;20.60;1.00;;;;;;5017023;28;20532;-79
2021/07/27 00:06:39;;;;;;;2.07;1.70;;;20.60;1.00;;;;;;5030327;28;20479;-80
2021/07/27 00:09:07;;;;;;;4.17;1.80;;;20.50;1.00;;;;;;5029285;28;20510;-80
2021/07/27 00:11:39;;;;;;;1.93;1.73;;;20.50;1.00;;;;;;5011373;28;20540;-82
2021/07/27 00:14:07;;;;;;;1.90;1.80;;;20.60;1.00;;;;;;5023344;28;20452;-79
2021/07/27 00:16:37;;;;;;;3.60;1.70;;;20.50;1.00;;;;;;5021269;28;20565;-79
2021/07/27 00:19:05;;;;;;;3.33;2.33;;;20.40;1.00;;;;;;5029777;28;20452;-79
2021/07/27 00:21:33;;;;;;;2.27;1.73;;;20.40;1.00;;;;;;5012018;28;20463;-80
2021/07/27 00:24:01;;;;;;;2.27;1.80;;;20.40;1.00;;;;;;5030304;28;20560;-79
2021/07/27 00:26:29;;;;;;;8.40;2.40;;;20.40;1.00;;;;;;5029411;28;20491;-79
2021/07/27 00:28:57;;;;;;;2.90;2.07;;;20.40;1.00;;;;;;5024273;28;20477;-79
2021/07/27 00:31:27;;;;;;;1.93;1.67;;;20.40;1.00;;;;;;5013189;28;20483;-80
2021/07/27 00:33:57;;;;;;;2.53;1.70;;;20.40;1.00;;;;;;5018709;28;20449;-79
2021/07/27 00:36:25;;;;;;;2.10;1.97;;;20.30;1.00;;;;;;5012541;28;20461;-79
2021/07/27 00:38:53;;;;;;;3.87;1.70;;;20.30;1.00;;;;;;5023645;28;20457;-79
2021/07/27 00:41:21;;;;;;;6.73;3.13;;;20.20;1.00;;;;;;5029231;28;20890;-78
2021/07/27 00:43:49;;;;;;;2.43;2.20;;;20.20;99.90;;;;;;5028135;28;20549;-79
2021/07/27 00:46:17;;;;;;;4.90;2.10;;;20.20;99.90;;;;;;5028960;28;20456;-79
2021/07/27 00:48:46;;;;;;;2.37;2.17;;;20.30;99.90;;;;;;5023184;28;20524;-79
2021/07/27 00:51:16;;;;;;;3.60;2.43;;;20.30;99.90;;;;;;5029152;28;20459;-78
2021/07/27 00:53:44;;;;;;;4.10;2.67;;;20.40;99.90;;;;;;5027838;28;20522;-82
2021/07/27 00:56:12;;;;;;;3.20;2.47;;;20.40;99.90;;;;;;5024244;28;20457;-80
2021/07/27 00:58:40;;;;;;;4.40;2.80;;;20.40;99.90;;;;;;5034181;28;20455;-79
2021/07/27 01:01:08;;;;;;;2.00;1.80;;;20.40;87.40;;;;;;5038243;28;20462;-80
2021/07/27 01:03:38;;;;;;;4.27;2.50;;;20.40;1.00;;;;;;5028919;28;20484;-80
2021/07/27 01:06:06;;;;;;;2.73;2.53;;;20.40;1.00;;;;;;5020614;28;20530;-80
2021/07/27 01:08:39;;;;;;;3.47;1.87;;;20.30;1.00;;;;;;5010102;28;20452;-80
2021/07/27 01:11:07;;;;;;;4.50;2.90;;;20.30;1.00;;;;;;5029203;28;20463;-80
2021/07/27 01:13:35;;;;;;;2.93;2.00;;;20.30;1.00;;;;;;5028512;28;20460;-80
2021/07/27 01:16:06;;;;;;;2.50;2.30;;;20.20;1.00;;;;;;5009874;28;20456;-78
2021/07/27 01:18:41;;;;;;;3.20;1.90;;;20.20;1.00;;;;;;5025041;28;20544;-80
2021/07/27 01:37:50;;;;;;;3.33;2.20;;;20.00;1.00;;;;;;5027351;28;20452;-80
2021/07/27 01:40:20;;;;;;;5.10;2.17;;;20.00;1.00;;;;;;5017793;28;20443;-79
2021/07/27 01:42:48;;;;;;;2.37;2.00;;;20.00;1.00;;;;;;5010378;28;20479;-79
2021/07/27 01:45:18;;;;;;;3.13;2.70;;;19.80;99.90;;;;;;5011110;28;20522;-78
2021/07/27 01:47:46;;;;;;;4.37;2.30;;;19.80;1.00;;;;;;5025620;28;20464;-79
2021/07/27 01:50:17;;;;;;;5.93;2.83;;;19.80;1.00;;;;;;5027908;28;20460;-79
2021/07/27 01:52:49;;;;;;;3.87;2.83;;;19.80;1.00;;;;;;5005986;28;20469;-79
2021/07/27 01:55:20;;;;;;;3.43;2.90;;;19.70;1.00;;;;;;5028060;28;20538;-78
2021/07/27 01:57:49;;;;;;;3.10;2.67;;;19.70;99.90;;;;;;5025630;28;21007;-79
2021/07/27 02:00:18;;;;;;;4.27;2.90;;;19.70;99.90;;;;;;5015157;28;20452;-78
2021/07/27 02:02:47;;;;;;;8.00;2.77;;;19.70;51.40;;;;;;5028348;28;20472;-79
2021/07/27 02:05:16;;;;;;;5.93;2.63;;;19.60;99.90;;;;;;5031828;28;20487;-78
2021/07/27 02:07:55;;;;;;;4.37;3.10;;;19.50;99.90;;;;;;5026920;28;20472;-81
2021/07/27 02:10:26;;;;;;;4.30;3.13;;;19.40;1.00;;;;;;5019413;28;20511;-79
2021/07/27 02:13:00;;;;;;;3.50;2.60;;;19.40;54.90;;;;;;5027529;28;20499;-78
2021/07/27 02:15:38;;;;;;;3.10;2.57;;;19.50;1.00;;;;;;5010287;28;20450;-79
2021/07/27 02:18:06;;;;;;;3.90;3.50;;;19.60;99.90;;;;;;5024150;28;20494;-81
2021/07/27 02:20:35;;;;;;;4.30;3.20;;;19.60;99.90;;;;;;5028282;28;20510;-80
2021/07/27 02:23:04;;;;;;;2.87;2.60;;;19.80;1.00;;;;;;5027729;28;20538;-79
2021/07/27 02:25:33;;;;;;;4.87;3.63;;;19.90;1.00;;;;;;5027725;28;20991;-78
2021/07/27 02:28:02;;;;;;;3.23;2.37;;;19.90;99.90;;;;;;5011112;28;20893;-79
2021/07/27 02:30:33;;;;;;;4.50;2.23;;;20.00;99.90;;;;;;5028211;28;20462;-79
2021/07/27 02:33:01;;;;;;;4.47;3.57;;;19.90;99.90;;;;;;5010060;28;20519;-79
2021/07/27 02:35:29;;;;;;;3.77;3.43;;;19.90;99.90;;;;;;5027284;28;20444;-80
2021/07/27 02:37:57;;;;;;;3.83;2.70;;;19.90;99.90;;;;;;5020548;28;20515;-79
2021/07/27 02:40:25;;;;;;;3.90;3.27;;;20.00;99.90;;;;;;5028459;28;20483;-80
2021/07/27 02:42:55;;;;;;;3.23;2.90;;;20.00;99.90;;;;;;5019825;28;20484;-79
2021/07/27 02:45:24;;;;;;;4.67;2.93;;;20.00;99.90;;;;;;5019721;28;21135;-79
2021/07/27 02:47:52;;;;;;;4.33;3.40;;;20.00;99.90;;;;;;5022023;28;20567;-79
2021/07/27 02:50:21;;;;;;;3.43;2.50;;;20.10;99.90;;;;;;5024453;28;21026;-79
2021/07/27 02:52:49;;;;;;;3.00;2.70;;;20.10;99.90;;;;;;5026527;28;20472;-81
2021/07/27 02:55:17;;;;;;;6.00;3.03;;;20.10;99.90;;;;;;5026156;28;20460;-78
2021/07/27 02:57:48;;;;;;;3.70;2.80;;;20.10;99.90;;;;;;5032478;28;20467;-79
2021/07/27 03:00:19;;;;;;;3.97;3.53;;;20.10;99.90;;;;;;5008886;28;20910;-78
2021/07/27 03:02:47;;;;;;;5.73;3.10;;;20.10;99.90;;;;;;5025044;28;20468;-78
2021/07/27 03:05:17;;;;;;;3.57;3.27;;;20.10;99.90;;;;;;5026504;28;20487;-77
2021/07/27 03:07:50;;;;;;;3.07;2.73;;;20.10;99.90;;;;;;5009120;28;21130;-78
2021/07/27 03:10:19;;;;;;;11.37;3.17;;;20.10;99.90;;;;;;5025433;28;20483;-79
2021/07/27 03:12:49;;;;;;;3.60;3.30;;;20.10;1.00;;;;;;5009672;28;20484;-78
2021/07/27 03:15:19;;;;;;;3.73;2.90;;;20.10;1.00;;;;;;5026040;28;20452;-77
2021/07/27 03:17:48;;;;;;;4.23;3.40;;;20.10;1.00;;;;;;5028582;28;20452;-79
2021/07/27 03:20:17;;;;;;;3.77;2.70;;;20.00;1.00;;;;;;5030815;28;20456;-78
2021/07/27 03:22:46;;;;;;;3.73;3.13;;;20.00;1.00;;;;;;5011866;28;20562;-78
2021/07/27 03:25:16;;;;;;;3.10;2.80;;;20.00;99.90;;;;;;5029446;28;20476;-78
2021/07/27 03:27:45;;;;;;;3.23;2.87;;;20.00;99.90;;;;;;5031831;28;20482;-78
2021/07/27 03:30:14;;;;;;;3.07;2.87;;;20.00;99.90;;;;;;5031517;28;20494;-78
2021/07/27 03:32:43;;;;;;;6.43;2.90;;;20.00;99.90;;;;;;5029831;28;20460;-79
2021/07/27 03:35:13;;;;;;;3.20;2.90;;;20.00;99.90;;;;;;5019886;28;20456;-78
2021/07/27 03:37:41;;;;;;;3.00;2.53;;;20.00;99.90;;;;;;5030870;28;20451;-80
2021/07/27 03:40:10;;;;;;;5.00;3.20;;;19.90;99.90;;;;;;5018874;28;20857;-78
2021/07/27 03:42:39;;;;;;;3.33;2.70;;;20.00;99.90;;;;;;5027120;28;20515;-80
2021/07/27 03:45:08;;;;;;;5.57;3.80;;;19.80;1.00;;;;;;5030581;28;20474;-79
2021/07/27 03:47:36;;;;;;;3.53;2.83;;;19.80;1.00;;;;;;5028223;28;20453;-85
2021/07/27 03:50:07;;;;;;;5.37;3.00;;;19.70;1.00;;;;;;5031542;28;20464;-80
2021/07/27 03:52:35;;;;;;;4.83;3.83;;;19.70;1.00;;;;;;5031138;28;20570;-81
2021/07/27 03:55:04;;;;;;;4.13;3.73;;;19.70;1.00;;;;;;5027727;28;20870;-80
2021/07/27 03:57:32;;;;;;;3.93;2.90;;;19.80;1.00;;;;;;5030691;28;20448;-77
2021/07/27 04:00:00;;;;;;;4.27;3.20;;;19.90;99.90;;;;;;5030458;28;20548;-77
2021/07/27 04:02:28;;;;;;;3.40;2.83;;;19.80;99.90;;;;;;5029083;28;20491;-77
2021/07/27 04:04:56;;;;;;;4.90;2.77;;;19.50;1.00;;;;;;5036803;28;21383;-77
2021/07/27 04:07:25;;;;;;;3.00;2.80;;;19.40;99.90;;;;;;5029634;28;20494;-77
2021/07/27 04:09:54;;;;;;;4.17;3.30;;;19.60;1.00;;;;;;5014795;28;20488;-79
2021/07/27 04:12:22;;;;;;;2.90;2.60;;;19.80;99.90;;;;;;5031096;28;20539;-79
2021/07/27 04:14:50;;;;;;;4.97;3.17;;;19.90;99.90;;;;;;5031619;28;20440;-82
2021/07/27 04:17:19;;;;;;;5.07;3.00;;;19.90;99.90;;;;;;5027982;28;20452;-80
2021/07/27 04:19:47;;;;;;;3.70;2.60;;;19.90;99.90;;;;;;5029844;28;20952;-79
2021/07/27 04:22:16;;;;;;;2.90;2.57;;;19.90;99.90;;;;;;5030023;28;20483;-78
2021/07/27 04:24:45;;;;;;;2.90;2.70;;;19.90;99.80;;;;;;5026997;28;20472;-80
2021/07/27 04:27:13;;;;;;;3.30;3.00;;;19.90;13.60;;;;;;5030212;28;20968;-79
2021/07/27 04:29:43;;;;;;;4.03;2.87;;;19.80;57.40;;;;;;5027738;28;20444;-79
2021/07/27 04:32:11;;;;;;;4.37;3.17;;;19.80;52.20;;;;;;5033245;28;20472;-81
2021/07/27 04:34:39;;;;;;;3.97;3.57;;;19.70;17.10;;;;;;5026043;28;20444;-78
2021/07/27 04:37:08;;;;;;;4.50;3.20;;;19.70;56.80;;;;;;5030695;28;20455;-79
2021/07/27 04:39:36;;;;;;;2.97;2.77;;;19.60;99.90;;;;;;5030983;28;20448;-80
2021/07/27 04:42:05;;;;;;;4.10;3.23;;;19.60;99.90;;;;;;5030005;28;20468;-79
2021/07/27 04:44:33;;;;;;;3.90;3.07;;;19.40;1.00;;;;;;5031400;28;20476;-79
2021/07/27 04:47:02;;;;;;;4.37;3.23;;;19.30;23.30;;;;;;5028962;28;20449;-80
2021/07/27 04:49:30;;;;;;;4.10;3.20;;;19.30;99.90;;;;;;5026821;28;20851;-80
2021/07/27 04:51:59;;;;;;;3.73;3.03;;;19.30;10.20;;;;;;5030549;28;20476;-78
2021/07/27 04:54:29;;;;;;;3.97;3.27;;;19.30;99.90;;;;;;5030417;28;20444;-82
2021/07/27 04:57:01;;;;;;;4.83;3.03;;;19.30;99.90;;;;;;5035769;28;20452;-83
2021/07/27 04:59:33;;;;;;;5.03;4.47;;;19.30;1.00;;;;;;5037931;28;20817;-81
2021/07/27 05:02:01;;;;;;;5.83;3.27;;;19.40;1.00;;;;;;5025998;28;21231;-83
2021/07/27 05:04:30;;;;;;;6.40;3.30;;;19.50;1.00;;;;;;5036557;28;21000;-84
2021/07/27 05:06:58;;;;;;;3.57;3.23;;;19.50;1.00;;;;;;5036174;28;20456;-83
2021/07/27 05:09:27;;;;;;;4.90;3.73;;;19.60;99.90;;;;;;5035802;28;20455;-82
2021/07/27 05:11:58;;;;;;;5.27;3.70;;;19.60;99.90;;;;;;5037277;28;20507;-82
2021/07/27 05:14:26;;;;;;;3.77;3.40;;;19.60;99.90;;;;;;5037311;28;20487;-83
2021/07/27 05:16:56;;;;;;;3.53;3.23;;;19.60;1.00;;;;;;5034483;28;20458;-82
2021/07/27 05:19:24;;;;;;;5.80;4.03;;;19.50;1.00;;;;;;5020825;28;20548;-84
2021/07/27 05:21:53;;;;;;;7.80;3.83;;;19.50;99.90;;;;;;5035925;28;20473;-82
2021/07/27 05:24:22;;;;;;;3.47;3.13;;;19.50;99.90;;;;;;5022991;28;20980;-82
2021/07/27 05:26:50;;;;;;;4.37;3.30;;;19.40;99.90;;;;;;5032440;28;20480;-85
2021/07/27 05:29:19;;;;;;;3.23;2.93;;;19.40;99.90;;;;;;5033510;28;20444;-86
2021/07/27 05:31:47;;;;;;;7.60;3.77;;;19.50;99.90;;;;;;5015538;28;20450;-83
2021/07/27 05:34:17;;;;;;;5.07;3.60;;;19.40;99.90;;;;;;5035454;28;20460;-83
2021/07/27 05:36:46;;;;;;;4.57;3.43;;;19.30;99.90;;;;;;5033514;28;20536;-83
2021/07/27 05:39:14;;;;;;;4.23;3.13;;;19.10;99.90;;;;;;5032850;28;20440;-82
2021/07/27 05:41:42;;;;;;;4.53;4.13;;;19.30;99.90;;;;;;5032940;28;20456;-83
2021/07/27 05:44:11;;;;;;;5.40;3.80;;;19.40;26.90;;;;;;5033428;28;20972;-82
2021/07/27 05:46:39;;;;;;;3.60;3.30;;;19.70;99.90;;;;;;5029910;28;20614;-81
2021/07/27 05:49:10;;;;;;;4.80;3.83;;;19.70;99.90;;;;;;5024994;28;21002;-83
2021/07/27 05:51:40;;;;;;;4.77;4.00;;;19.80;99.90;;;;;;5025091;28;20456;-79
2021/07/27 05:54:08;;;;;;;4.90;4.00;;;19.90;1.00;;;;;;5036331;28;20448;-79
2021/07/27 05:56:36;;;;;;;3.70;2.80;;;20.00;1.00;;;;;;5028147;28;20448;-82
2021/07/27 05:59:04;;;;;;;4.50;4.10;;;20.00;99.90;;;;;;5043152;28;20517;-81
2021/07/27 06:01:32;;;;;;;5.03;3.37;;;20.00;65.00;;;;;;5027950;28;20451;-80
2021/07/27 06:04:01;;;;;;;6.57;3.87;;;20.10;99.90;;;;;;5033564;28;20452;-82
2021/07/27 06:06:32;;;;;;;4.70;3.10;;;20.10;99.90;;;;;;5029137;28;20482;-80
2021/07/27 06:09:03;;;;;;;4.90;3.70;;;20.20;99.90;;;;;;5016437;28;20456;-80
2021/07/27 06:11:32;;;;;;;3.93;2.80;;;20.30;1.00;;;;;;5019253;28;20472;-81
2021/07/27 06:14:01;;;;;;;4.23;3.30;;;20.40;1.00;;;;;;5024852;28;20456;-80
2021/07/27 06:16:30;;;;;;;5.67;3.50;;;20.40;99.90;;;;;;5025616;28;20448;-81
2021/07/27 06:18:59;;;;;;;3.30;3.00;;;20.40;1.00;;;;;;5028794;28;20484;-80
2021/07/27 06:21:27;;;;;;;5.17;3.23;;;20.40;99.90;;;;;;5027596;28;20870;-80
2021/07/27 06:23:55;;;;;;;4.00;3.27;;;20.50;99.90;;;;;;5027454;28;20579;-80
2021/07/27 06:26:25;;;;;;;12.13;3.50;;;20.50;99.90;;;;;;5024949;28;20914;-80
2021/07/27 06:28:53;;;;;;;4.00;3.53;;;20.60;99.90;;;;;;5022301;28;20506;-80
2021/07/27 06:31:21;;;;;;;4.80;3.40;;;20.60;99.90;;;;;;5030056;28;20518;-80
2021/07/27 06:33:49;;;;;;;3.20;2.90;;;20.70;1.00;;;;;;5032146;28;20472;-81
2021/07/27 06:36:17;;;;;;;4.03;3.63;;;20.70;1.00;;;;;;5030455;28;20445;-80
2021/07/27 06:38:46;;;;;;;4.70;4.00;;;20.80;1.00;;;;;;5031558;28;21177;-80
2021/07/27 06:41:14;;;;;;;5.17;3.80;;;20.80;99.90;;;;;;5024702;28;20461;-80
2021/07/27 06:43:44;;;;;;;6.90;3.33;;;20.80;1.00;;;;;;5029512;28;20472;-81
2021/07/27 06:46:12;;;;;;;3.50;2.97;;;20.80;99.90;;;;;;5029670;28;20488;-80
2021/07/27 06:48:42;;;;;;;6.17;3.20;;;20.80;99.90;;;;;;5031374;28;20491;-81
2021/07/27 06:51:12;;;;;;;4.00;2.93;;;20.90;99.90;;;;;;5023582;28;20456;-78
2021/07/27 06:53:42;;;;;;;4.30;3.23;;;20.90;99.90;;;;;;5031976;28;20468;-82
2021/07/27 06:56:11;;;;;;;4.00;3.27;;;20.90;99.90;;;;;;5020075;28;20476;-81
2021/07/27 06:58:41;;;;;;;3.57;2.60;;;21.10;26.00;;;;;;5021655;28;20444;-81
2021/07/27 07:01:12;;;;;;;3.50;3.20;;;21.30;1.00;;;;;;5019278;28;20636;-80
2021/07/27 07:03:41;;;;;;;4.00;3.40;;;21.40;1.00;;;;;;5032753;28;20478;-83
2021/07/27 07:06:11;;;;;;;6.00;2.90;;;21.70;1.00;;;;;;5009007;28;20543;-83
2021/07/27 07:08:40;;;;;;;3.27;2.97;;;21.80;99.90;;;;;;5014280;28;20452;-83
2021/07/27 07:11:10;;;;;;;4.20;3.23;;;22.00;99.90;;;;;;5014759;28;20476;-82
2021/07/27 07:13:38;;;;;;;3.00;2.70;;;22.10;99.90;;;;;;5030840;28;20484;-84
2021/07/27 07:16:13;;;;;;;4.10;3.27;;;22.20;99.90;;;;;;5022469;28;20455;-82
2021/07/27 07:18:41;;;;;;;5.10;3.00;;;22.30;99.90;;;;;;5019153;28;20459;-82
2021/07/27 07:21:09;;;;;;;3.90;3.53;;;22.40;99.90;;;;;;5032393;28;20518;-83
2021/07/27 07:23:38;;;;;;;4.37;3.47;;;22.40;99.90;;;;;;5031358;28;20882;-81
2021/07/27 07:26:08;;;;;;;4.67;3.00;;;22.50;83.00;;;;;;5032263;28;20468;-82
2021/07/27 07:28:37;;;;;;;3.40;3.10;;;22.50;1.00;;;;;;5012463;28;21176;-83
2021/07/27 07:31:07;;;;;;;3.30;3.00;;;22.60;1.00;;;;;;5032546;28;20959;-82
2021/07/27 07:33:36;;;;;;;3.13;2.83;;;22.60;1.00;;;;;;5034688;28;20469;-81
2021/07/27 07:36:10;;;;;;;3.60;2.40;;;22.60;1.00;;;;;;5035127;28;20452;-83
2021/07/27 07:38:38;;;;;;;3.13;2.83;;;22.70;1.00;;;;;;5010269;28;20461;-83
2021/07/27 07:41:07;;;;;;;4.67;4.13;;;22.70;1.00;;;;;;5026600;28;20487;-83
2021/07/27 07:43:35;;;;;;;3.30;3.00;;;22.60;1.00;;;;;;5025852;28;20472;-82
2021/07/27 07:46:04;;;;;;;3.93;3.57;;;22.60;1.00;;;;;;5031857;28;20946;-83
2021/07/27 07:48:32;;;;;;;3.17;2.87;;;22.60;1.00;;;;;;5015451;28;20486;-82
2021/07/27 07:51:01;;;;;;;4.33;3.40;;;22.70;1.00;;;;;;5031843;28;20470;-82
2021/07/27 07:53:32;;;;;;;4.93;3.73;;;22.60;1.00;;;;;;5033058;28;20472;-82
2021/07/27 07:56:00;;;;;;;4.20;2.80;;;22.60;1.00;;;;;;5030170;28;20474;-83
2021/07/27 07:58:28;;;;;;;4.80;3.20;;;22.60;1.00;;;;;;5031184;28;20463;-83
2021/07/27 08:00:56;;;;;;;4.00;3.50;;;22.70;1.00;;;;;;5027048;28;20452;-83
2021/07/27 08:03:25;;;;;;;4.20;3.80;;;22.70;1.00;;;;;;5025493;28;21098;-83
2021/07/27 08:05:53;;;;;;;6.17;3.73;;;22.70;1.00;;;;;;5011782;28;20856;-84
2021/07/27 08:08:22;;;;;;;3.80;3.40;;;22.70;1.00;;;;;;5030917;28;20471;-82
2021/07/27 08:10:50;;;;;;;4.20;3.80;;;22.70;1.00;;;;;;5029425;28;20984;-82
2021/07/27 08:13:18;;;;;;;5.07;3.57;;;22.80;1.00;;;;;;5013541;28;20488;-83
2021/07/27 08:15:48;;;;;;;3.60;3.30;;;22.80;1.00;;;;;;5011284;28;20482;-83
2021/07/27 08:18:20;;;;;;;3.63;3.17;;;22.80;1.00;;;;;;5030950;28;20455;-83
2021/07/27 08:20:48;;;;;;;4.13;3.80;;;22.90;1.00;;;;;;5029937;28;20893;-83
2021/07/27 08:23:17;;;;;;;5.40;3.90;;;22.90;1.00;;;;;;5030687;28;20536;-83
2021/07/27 08:25:46;;;;;;;4.30;3.30;;;22.90;1.00;;;;;;5011696;28;21018;-82
2021/07/27 08:28:14;;;;;;;5.10;3.70;;;22.90;1.00;;;;;;5028526;28;20487;-83
2021/07/27 08:30:42;;;;;;;4.13;3.60;;;23.00;1.00;;;;;;5012167;28;20960;-83
2021/07/27 08:33:10;;;;;;;3.40;3.17;;;23.00;1.00;;;;;;5031342;28;20480;-80
2021/07/27 08:35:39;;;;;;;4.33;4.00;;;23.00;1.00;;;;;;5029922;28;20461;-83
2021/07/27 08:38:07;;;;;;;3.93;3.37;;;23.00;1.00;;;;;;5024305;28;20947;-83
2021/07/27 08:40:36;;;;;;;3.60;3.30;;;23.00;1.00;;;;;;5029575;28;20477;-83
2021/07/27 08:43:08;;;;;;;3.80;3.50;;;23.00;1.00;;;;;;5012297;28;20464;-83
2021/07/27 08:45:36;;;;;;;4.40;2.93;;;23.00;1.00;;;;;;5028655;28;20943;-85
2021/07/27 08:48:21;;;;;;;3.80;3.20;;;23.10;1.00;;;;;;5007748;28;20476;-83
2021/07/27 08:50:50;;;;;;;4.83;3.57;;;23.10;1.00;;;;;;5026898;28;20510;-83
2021/07/27 08:53:19;;;;;;;5.10;3.67;;;23.20;1.00;;;;;;5001287;28;20465;-83
2021/07/27 08:55:47;;;;;;;7.67;4.20;;;23.10;1.00;;;;;;5014545;28;21217;-83
2021/07/27 08:58:17;;;;;;;3.90;3.60;;;23.10;1.00;;;;;;5008108;28;20473;-82
2021/07/27 09:00:45;;;;;;;4.10;3.80;;;23.20;1.00;;;;;;5027368;28;20514;-82
2021/07/27 09:03:16;;;;;;;4.40;3.90;;;23.30;1.00;;;;;;5028543;28;20487;-83
2021/07/27 09:05:45;;;;;;;6.80;4.10;;;23.30;1.00;;;;;;5029793;28;20471;-83
2021/07/27 09:08:15;;;;;;;4.13;3.67;;;23.30;1.00;;;;;;5015346;28;20473;-83
2021/07/27 09:10:45;;;;;;;3.90;3.60;;;23.40;1.00;;;;;;5015396;28;20856;-83
2021/07/27 09:13:16;;;;;;;4.80;3.33;;;23.40;1.00;;;;;;5028673;28;20475;-82
2021/07/27 09:15:46;;;;;;;9.43;3.60;;;23.40;1.00;;;;;;5021898;28;20464;-83
2021/07/27 09:18:15;;;;;;;4.40;3.70;;;23.40;1.00;;;;;;5029046;28;20549;-83
2021/07/27 09:20:47;;;;;;;5.00;4.17;;;23.50;1.00;;;;;;5024161;28;21024;-82
2021/07/27 09:23:17;;;;;;;5.87;4.37;;;23.50;1.00;;;;;;5005934;28;20518;-85
2021/07/27 09:25:49;;;;;;;3.90;3.50;;;23.50;1.00;;;;;;5031727;28;20453;-84
2021/07/27 09:28:19;;;;;;;3.43;2.97;;;23.50;1.00;;;;;;5031059;28;21045;-84
2021/07/27 09:30:50;;;;;;;2.73;2.50;;;23.50;1.00;;;;;;5014698;28;20459;-84
2021/07/27 09:33:28;;;;;;;5.90;3.17;;;23.50;99.90;;;;;;5032498;28;20461;-85
2021/07/27 09:35:56;;;;;;;3.20;2.90;;;23.60;99.90;;;;;;4995453;28;20453;-84
2021/07/27 09:38:25;;;;;;;4.00;2.97;;;23.60;99.90;;;;;;5012991;28;20438;-84
2021/07/27 09:40:56;;;;;;;3.77;2.90;;;23.70;99.90;;;;;;5008903;28;20492;-84
2021/07/27 09:43:46;;;;;;;3.67;2.93;;;23.70;99.90;;;;;;4992835;28;20482;-82
2021/07/27 09:46:16;;;;;;;4.97;3.50;;;23.70;1.00;;;;;;5019236;28;20502;-83
2021/07/27 09:48:46;;;;;;;4.57;3.50;;;23.80;99.90;;;;;;5012522;28;20584;-85
2021/07/27 09:51:15;;;;;;;2.50;2.30;;;23.80;99.90;;;;;;5012561;28;20448;-84
2021/07/27 09:53:46;;;;;;;4.77;3.23;;;23.80;99.90;;;;;;5030877;28;20499;-84
2021/07/27 09:56:14;;;;;;;4.53;2.70;;;23.90;99.90;;;;;;5028766;28;20452;-84
2021/07/27 09:58:42;;;;;;;3.87;3.10;;;24.00;99.90;;;;;;5030304;28;20448;-82
2021/07/27 10:01:14;;;;;;;4.93;3.30;;;24.00;99.90;;;;;;5028017;28;20511;-81
2021/07/27 10:03:51;;;;;;;3.33;3.03;;;24.00;99.90;;;;;;5029039;28;20535;-82
2021/07/27 10:06:26;;;;;;;3.50;3.20;;;24.00;99.90;;;;;;5027337;28;20460;-83
2021/07/27 10:08:55;;;;;;;2.80;2.53;;;24.00;99.90;;;;;;5024653;28;20490;-81
2021/07/27 10:11:38;;;;;;;3.40;3.20;;;24.00;99.90;;;;;;5027108;28;20506;-82
2021/07/27 10:14:08;;;;;;;2.93;2.63;;;24.10;99.90;;;;;;5026825;28;20452;-82
2021/07/27 10:16:38;;;;;;;4.53;3.00;;;24.10;99.90;;;;;;5027084;28;20487;-82
2021/07/27 10:19:19;;;;;;;3.87;3.10;;;24.10;99.90;;;;;;5023718;28;20984;-83
2021/07/27 10:21:49;;;;;;;3.07;2.83;;;24.10;99.90;;;;;;5027144;28;21152;-81
2021/07/27 10:24:20;;;;;;;3.10;2.90;;;24.10;99.90;;;;;;5012175;28;21017;-81
2021/07/27 10:26:49;;;;;;;2.77;2.57;;;24.10;99.90;;;;;;5006948;28;20545;-82
2021/07/27 10:29:29;;;;;;;4.40;2.30;;;24.20;99.90;;;;;;5008906;28;20877;-81
2021/07/27 10:31:59;;;;;;;3.87;2.67;;;24.10;99.90;;;;;;5010252;28;20472;-80
2021/07/27 10:34:33;;;;;;;3.90;2.60;;;24.20;99.90;;;;;;5009341;28;20457;-80
2021/07/27 10:37:07;;;;;;;2.83;2.60;;;24.20;99.90;;;;;;5023059;28;20543;-80
2021/07/27 10:39:47;;;;;;;2.90;2.57;;;24.20;99.90;;;;;;5026035;28;20543;-78
2021/07/27 10:42:16;;;;;;;3.00;2.73;;;24.20;99.90;;;;;;5006445;28;20871;-78
2021/07/27 10:44:46;;;;;;;3.20;2.90;;;24.20;99.90;;;;;;5024112;28;20448;-79
2021/07/27 10:47:21;;;;;;;3.97;2.70;;;24.20;99.90;;;;;;5025829;28;20548;-78
2021/07/27 10:50:02;;;;;;;2.13;1.93;;;24.20;99.90;;;;;;5026975;28;20476;-77
2021/07/27 10:52:32;;;;;;;3.13;2.40;;;24.30;99.90;;;;;;5021840;28;20487;-78
2021/07/27 10:55:01;;;;;;;2.30;2.03;;;24.40;99.90;;;;;;5023341;28;20966;-77
2021/07/27 10:57:35;;;;;;;3.20;3.00;;;24.40;99.90;;;;;;5024026;28;20452;-77
2021/07/27 11:00:04;;;;;;;2.90;2.60;;;24.40;99.90;;;;;;5006866;28;20465;-79
2021/07/27 11:02:33;;;;;;;2.77;2.40;;;24.40;99.90;;;;;;5008400;28;20849;-80
2021/07/27 11:05:02;;;;;;;3.03;2.53;;;24.50;99.90;;;;;;5025994;28;20816;-80
2021/07/27 11:07:34;;;;;;;2.90;2.70;;;24.40;99.90;;;;;;5028146;28;20456;-81
2021/07/27 11:10:05;;;;;;;3.43;2.90;;;24.50;99.90;;;;;;5023686;28;20487;-80
2021/07/27 11:12:35;;;;;;;3.30;3.00;;;24.50;99.90;;;;;;5028149;28;20487;-81
2021/07/27 11:15:14;;;;;;;3.23;2.57;;;24.60;99.90;;;;;;5025838;28;20460;-81
2021/07/27 11:17:47;;;;;;;2.30;2.10;;;24.50;99.90;;;;;;5027982;28;20475;-81
2021/07/27 11:20:17;;;;;;;2.33;2.00;;;24.50;99.90;;;;;;5010096;28;20518;-81
2021/07/27 11:22:47;;;;;;;2.27;2.13;;;24.50;99.90;;;;;;5009651;28;21059;-80
2021/07/27 11:25:19;;;;;;;3.20;2.90;;;24.50;99.90;;;;;;5029081;28;20547;-81
2021/07/27 11:27:48;;;;;;;2.27;2.07;;;24.60;99.90;;;;;;5029381;28;20825;-83
2021/07/27 11:30:18;;;;;;;2.73;2.53;;;24.70;99.90;;;;;;5012786;28;21110;-83
2021/07/27 11:32:49;;;;;;;3.20;2.30;;;24.60;99.90;;;;;;5027358;28;20460;-83
2021/07/27 11:35:20;;;;;;;2.30;1.70;;;24.70;99.90;;;;;;5007497;28;20461;-84
2021/07/27 11:38:01;;;;;;;3.03;2.13;;;24.70;99.90;;;;;;5013210;28;20456;-82
2021/07/27 11:40:34;;;;;;;2.37;2.17;;;24.80;99.90;;;;;;5015039;28;20460;-83
2021/07/27 11:43:06;;;;;;;2.87;2.60;;;24.70;99.90;;;;;;5030947;28;20502;-84
2021/07/27 11:45:35;;;;;;;3.30;2.10;;;24.80;99.90;;;;;;5034621;28;20455;-83
2021/07/27 11:48:05;;;;;;;2.50;1.90;;;24.70;99.90;;;;;;5035441;28;20456;-82
2021/07/27 11:50:35;;;;;;;3.40;2.40;;;24.80;99.90;;;;;;5016637;28;20460;-83
2021/07/27 11:53:06;;;;;;;2.40;2.10;;;24.70;99.90;;;;;;5016852;28;20545;-82
2021/07/27 11:55:35;;;;;;;2.73;2.30;;;24.70;99.90;;;;;;5036895;28;20522;-81
2021/07/27 11:58:04;;;;;;;2.30;2.10;;;24.70;99.90;;;;;;5017461;28;20506;-81
2021/07/27 12:00:33;;;;;;;3.07;2.43;;;24.70;99.90;;;;;;5037533;28;20483;-82
2021/07/27 12:03:04;;;;;;;2.27;2.00;;;24.80;99.90;;;;;;5037125;28;20530;-82
2021/07/27 12:05:34;;;;;;;4.73;1.87;;;24.70;99.90;;;;;;5019825;28;20452;-82
2021/07/27 12:08:03;;;;;;;1.97;1.87;;;24.80;99.90;;;;;;5019487;28;20464;-81
2021/07/27 12:10:31;;;;;;;2.77;2.00;;;24.70;99.90;;;;;;5039724;28;20479;-82
2021/07/27 12:12:59;;;;;;;4.20;2.67;;;24.70;99.90;;;;;;5016486;28;20483;-82
2021/07/27 12:15:28;;;;;;;3.83;2.43;;;24.70;99.90;;;;;;5027096;28;20448;-83
2021/07/27 12:17:56;;;;;;;2.83;2.60;;;24.70;99.90;;;;;;5029117;28;20454;-82
2021/07/27 12:20:33;;;;;;;3.23;2.93;;;24.80;99.90;;;;;;5029888;28;20454;-82
2021/07/27 12:23:01;;;;;;;3.83;3.00;;;24.80;99.90;;;;;;5032237;28;20508;-82
2021/07/27 12:25:29;;;;;;;3.47;2.77;;;24.80;99.90;;;;;;5031114;28;20460;-81
2021/07/27 12:27:57;;;;;;;3.77;2.50;;;24.80;99.90;;;;;;5031915;28;20452;-82
2021/07/27 12:30:27;;;;;;;2.70;2.50;;;24.80;99.90;;;;;;5013182;28;20475;-83
2021/07/27 12:32:55;;;;;;;2.33;2.17;;;24.80;99.90;;;;;;5033637;28;20473;-82
2021/07/27 12:35:23;;;;;;;2.30;2.10;;;24.90;99.90;;;;;;5015354;28;20464;-82
2021/07/27 12:37:52;;;;;;;2.43;2.23;;;24.90;99.90;;;;;;5032601;28;20475;-83
2021/07/27 12:40:21;;;;;;;2.80;2.37;;;25.00;99.90;;;;;;5014739;28;20502;-83
2021/07/27 12:42:49;;;;;;;4.30;2.57;;;25.00;99.90;;;;;;5034758;28;20496;-83
2021/07/27 12:45:17;;;;;;;2.30;2.10;;;24.90;99.90;;;;;;5034325;28;20453;-81
2021/07/27 12:47:45;;;;;;;2.60;2.40;;;25.10;99.90;;;;;;5031211;28;20464;-82
2021/07/27 12:50:14;;;;;;;2.83;2.63;;;25.10;99.90;;;;;;5035056;28;20573;-83
2021/07/27 12:52:42;;;;;;;2.20;2.00;;;25.10;99.90;;;;;;5013361;28;20912;-82
2021/07/27 12:55:13;;;;;;;2.57;2.20;;;25.10;99.90;;;;;;5029430;28;20484;-82
2021/07/27 12:57:41;;;;;;;2.33;2.10;;;25.20;99.90;;;;;;5035828;28;20514;-83
2021/07/27 13:00:10;;;;;;;2.30;2.10;;;25.20;99.90;;;;;;5033647;28;20452;-81
2021/07/27 13:02:38;;;;;;;2.80;2.60;;;25.20;99.90;;;;;;5028620;28;20572;-82
2021/07/27 13:05:07;;;;;;;2.37;2.17;;;25.20;99.90;;;;;;5027960;28;20492;-82
2021/07/27 13:07:35;;;;;;;2.43;2.23;;;25.30;99.90;;;;;;5025515;28;20963;-83
2021/07/27 13:10:04;;;;;;;2.23;2.03;;;25.30;99.90;;;;;;5008630;28;20490;-81
2021/07/27 13:12:34;;;;;;;2.87;2.60;;;25.30;99.90;;;;;;5028439;28;20994;-82
2021/07/27 13:15:02;;;;;;;2.27;2.07;;;25.20;99.90;;;;;;5025733;28;20506;-81
2021/07/27 13:17:30;;;;;;;3.67;3.27;;;25.20;99.90;;;;;;5027843;28;20994;-80
2021/07/27 13:19:58;;;;;;;3.20;2.73;;;25.20;99.90;;;;;;5005735;28;20479;-81